Time;durP1;ratioP1;P1;durP2;ratioP2;P2;SDS_P1;SDS_P2;PMS_P1;PMS_P2;Temp;Humidity;BMP_temperature;BMP_pressure;BME280_temperature;BME280_humidity;BME280_pressure;Samples;Min_cycle;Max_cycle;Signal;HPM_P1;HPM_P2
2023/10/30 00:01:11;;;;;;;0.93;0.40;;;;;;;12.12;94.41;94591.78;6126185;23;20195;-83
2023/10/30 00:03:36;;;;;;;1.43;0.40;;;;;;;12.19;94.01;94600.47;6125349;23;20207;-85
2023/10/30 00:06:02;;;;;;;1.37;0.60;;;;;;;12.24;93.60;94607.72;6099674;23;20210;-84
2023/10/30 00:08:28;;;;;;;1.37;0.50;;;;;;;12.01;94.91;94607.81;6124990;23;20247;-84
2023/10/30 00:10:53;;;;;;;0.70;0.33;;;;;;;12.05;94.90;94603.88;6100189;23;20191;-82
2023/10/30 00:13:19;;;;;;;0.40;0.40;;;;;;;11.88;95.04;94598.03;6125901;23;20161;-85
2023/10/30 00:15:44;;;;;;;1.83;0.60;;;;;;;11.95;94.90;94598.13;6099141;23;20685;-83
2023/10/30 00:18:09;;;;;;;1.40;0.50;;;;;;;12.22;93.44;94593.28;6125619;23;20183;-87
2023/10/30 00:20:37;;;;;;;0.73;0.40;;;;;;;12.20;93.50;94585.66;6126084;23;20156;-84
2023/10/30 00:23:02;;;;;;;0.53;0.50;;;;;;;12.16;94.05;94587.81;6124457;23;20357;-83
2023/10/30 00:25:28;;;;;;;0.60;0.50;;;;;;;12.13;94.17;94590.78;6125110;23;20163;-83
2023/10/30 00:27:55;;;;;;;1.90;0.40;;;;;;;12.08;94.18;94592.28;6099766;23;20195;-82
2023/10/30 00:30:21;;;;;;;2.83;0.50;;;;;;;12.14;93.73;94600.19;6126166;23;20214;-83
2023/10/30 00:32:46;;;;;;;1.17;0.40;;;;;;;12.12;93.87;94607.38;6127066;23;20159;-83
2023/10/30 00:35:11;;;;;;;2.37;0.50;;;;;;;12.15;93.43;94616.63;6125353;23;20159;-83
2023/10/30 00:37:37;;;;;;;2.27;0.40;;;;;;;12.17;92.92;94606.81;6124587;23;20156;-83
2023/10/30 00:40:03;;;;;;;0.77;0.60;;;;;;;12.18;93.32;94618.84;6099701;23;20184;-84
2023/10/30 00:42:28;;;;;;;1.23;0.40;;;;;;;11.96;93.02;94617.97;6098999;23;20212;-83
2023/10/30 00:44:54;;;;;;;1.07;0.60;;;;;;;12.07;92.34;94630.53;6124855;23;20152;-86
2023/10/30 00:47:19;;;;;;;0.70;0.50;;;;;;;12.04;91.82;94617.88;6128258;23;20152;-84
2023/10/30 00:49:45;;;;;;;0.77;0.50;;;;;;;11.99;91.40;94628.00;6127062;23;20175;-84
2023/10/30 00:52:10;;;;;;;2.27;0.90;;;;;;;12.08;91.33;94629.53;6127990;23;20179;-85
2023/10/30 00:54:35;;;;;;;0.97;0.87;;;;;;;12.09;90.76;94635.53;6127816;23;20156;-85
2023/10/30 00:57:01;;;;;;;2.03;1.10;;;;;;;12.08;91.29;94629.53;6102836;23;20227;-85
2023/10/30 00:59:26;;;;;;;0.90;0.83;;;;;;;12.10;90.87;94648.41;6103069;23;20180;-83
2023/10/30 01:01:51;;;;;;;1.53;1.00;;;;;;;12.07;91.03;94637.53;6104397;23;20247;-85
2023/10/30 01:04:17;;;;;;;2.07;0.97;;;;;;;12.12;90.63;94638.63;6104431;23;20156;-83
2023/10/30 01:06:42;;;;;;;1.33;1.00;;;;;;;12.15;90.96;94650.44;6103714;23;20314;-83
2023/10/30 01:09:07;;;;;;;1.53;0.83;;;;;;;12.06;90.64;94651.53;6127306;23;20180;-83
2023/10/30 01:11:33;;;;;;;1.27;0.87;;;;;;;12.05;90.83;94648.13;6126832;23;20267;-82
2023/10/30 01:13:58;;;;;;;1.67;0.90;;;;;;;12.02;91.29;94653.69;6101147;23;20269;-82
2023/10/30 01:16:24;;;;;;;1.93;0.70;;;;;;;12.02;91.38;94650.28;6127328;23;20159;-84
2023/10/30 01:18:49;;;;;;;1.07;0.60;;;;;;;11.95;92.52;94650.16;6127647;23;20171;-83
2023/10/30 01:21:15;;;;;;;1.63;0.50;;;;;;;11.95;92.38;94634.56;6102242;23;20607;-84
2023/10/30 01:23:40;;;;;;;0.53;0.40;;;;;;;11.91;92.85;94639.28;6100686;23;20160;-81
2023/10/30 01:26:05;;;;;;;1.63;0.60;;;;;;;11.89;93.29;94633.47;6100959;23;20206;-84
2023/10/30 01:28:31;;;;;;;0.50;0.40;;;;;;;11.89;93.17;94640.47;6100468;23;20512;-84
2023/10/30 01:30:56;;;;;;;3.53;0.60;;;;;;;11.94;93.20;94642.53;6100566;23;20184;-85
2023/10/30 01:33:23;;;;;;;1.10;0.83;;;;;;;11.89;93.54;94635.25;6127527;23;20152;-83
2023/10/30 01:35:48;;;;;;;3.73;0.90;;;;;;;11.81;94.09;94646.53;6124559;23;20156;-82
2023/10/30 01:38:13;;;;;;;1.00;0.70;;;;;;;11.82;93.97;94639.56;6124941;23;20207;-83
2023/10/30 01:40:49;;;;;;;2.67;0.60;;;;;;;11.77;94.68;94634.88;6100418;23;20152;-82
2023/10/30 01:43:14;;;;;;;1.20;0.50;;;;;;;11.89;93.86;94637.88;6100149;23;20148;-83
2023/10/30 01:45:39;;;;;;;0.70;0.47;;;;;;;11.83;93.35;94635.97;6123179;23;20190;-82
2023/10/30 01:48:05;;;;;;;2.30;0.63;;;;;;;11.69;94.45;94642.75;6099136;23;20567;-85
2023/10/30 01:50:30;;;;;;;1.50;0.60;;;;;;;11.75;93.82;94634.25;6099661;23;20493;-84
2023/10/30 01:52:56;;;;;;;1.60;0.70;;;;;;;11.64;93.89;94635.44;6125788;23;20180;-84
2023/10/30 01:55:21;;;;;;;1.00;0.40;;;;;;;11.67;93.39;94625.69;6099077;23;20168;-83
2023/10/30 01:57:47;;;;;;;2.97;0.50;;;;;;;11.62;93.69;94628.81;6099806;23;20163;-85
2023/10/30 02:00:12;;;;;;;4.37;0.60;;;;;;;11.55;94.52;94625.28;6099715;23;20164;-83
2023/10/30 02:02:38;;;;;;;2.20;0.50;;;;;;;11.44;94.98;94623.94;6098872;23;20163;-83
2023/10/30 02:05:05;;;;;;;1.30;0.60;;;;;;;11.54;93.87;94621.09;6098971;23;20600;-84
2023/10/30 02:07:30;;;;;;;1.50;0.50;;;;;;;11.51;93.76;94617.06;6099101;23;20187;-84
2023/10/30 02:09:56;;;;;;;2.63;0.60;;;;;;;11.57;93.00;94620.72;6074651;23;20186;-82
2023/10/30 02:12:21;;;;;;;2.43;0.77;;;;;;;11.60;92.92;94621.19;6098906;23;20159;-83
2023/10/30 02:14:46;;;;;;;1.13;0.60;;;;;;;11.63;92.52;94615.63;6073889;23;20207;-84
2023/10/30 02:17:12;;;;;;;2.03;0.43;;;;;;;11.67;92.29;94613.50;6123303;23;20310;-82
2023/10/30 02:19:37;;;;;;;0.87;0.80;;;;;;;11.58;92.44;94617.97;6099014;23;20180;-84
2023/10/30 02:22:02;;;;;;;1.10;0.53;;;;;;;11.56;92.31;94611.31;6098593;23;20155;-83
2023/10/30 02:24:28;;;;;;;1.23;0.50;;;;;;;11.52;92.68;94626.47;6098072;23;20175;-85
2023/10/30 02:26:53;;;;;;;2.30;0.87;;;;;;;11.48;93.29;94619.97;6098308;23;20745;-83
2023/10/30 02:29:18;;;;;;;1.47;0.60;;;;;;;11.47;93.15;94623.56;6098577;23;20556;-84
2023/10/30 02:31:44;;;;;;;1.63;0.60;;;;;;;11.39;94.14;94628.03;6098223;23;20219;-85
2023/10/30 02:34:10;;;;;;;3.27;0.60;;;;;;;11.38;93.95;94622.03;6097951;23;20167;-83
2023/10/30 02:36:35;;;;;;;2.93;0.60;;;;;;;11.54;93.41;94621.88;6124702;23;20596;-86
2023/10/30 02:39:04;;;;;;;0.87;0.47;;;;;;;11.58;92.87;94612.78;6098251;23;20183;-83
2023/10/30 02:41:31;;;;;;;2.07;0.50;;;;;;;11.47;93.02;94617.56;6097690;23;20501;-83
2023/10/30 02:43:57;;;;;;;1.13;0.50;;;;;;;11.61;92.65;94606.41;6097698;23;20634;-83
2023/10/30 02:46:22;;;;;;;0.40;0.40;;;;;;;11.49;93.39;94607.81;6096929;23;20238;-83
2023/10/30 02:48:47;;;;;;;2.43;0.70;;;;;;;11.51;93.83;94614.47;6098286;23;20395;-82
2023/10/30 02:51:13;;;;;;;2.47;0.77;;;;;;;11.54;93.45;94605.47;6097430;23;20210;-83
2023/10/30 02:53:38;;;;;;;0.97;0.60;;;;;;;11.46;93.39;94597.75;6097841;23;20623;-84
2023/10/30 02:56:04;;;;;;;1.53;0.60;;;;;;;11.59;92.68;94600.56;6097183;23;20190;-84
2023/10/30 02:58:29;;;;;;;2.03;0.50;;;;;;;11.55;92.43;94596.69;6123471;23;20184;-84
2023/10/30 03:00:55;;;;;;;1.60;0.60;;;;;;;11.57;92.15;94585.16;6123805;23;20174;-83
2023/10/30 03:03:20;;;;;;;1.47;0.50;;;;;;;11.62;91.93;94592.41;6122215;23;20159;-85
2023/10/30 03:05:45;;;;;;;1.43;0.60;;;;;;;11.61;92.04;94591.59;6096959;23;20156;-84
2023/10/30 03:08:11;;;;;;;3.60;0.70;;;;;;;11.58;91.83;94594.56;6097669;23;20199;-80
2023/10/30 03:10:36;;;;;;;1.97;0.53;;;;;;;11.38;91.94;94592.63;6097640;23;20188;-83
2023/10/30 03:13:01;;;;;;;0.87;0.60;;;;;;;11.47;91.91;94583.78;6097499;23;20156;-83
2023/10/30 03:15:27;;;;;;;1.50;0.73;;;;;;;11.51;91.12;94583.25;6072816;23;20234;-82
2023/10/30 03:17:52;;;;;;;2.03;0.40;;;;;;;11.42;91.51;94571.31;6097361;23;20231;-82
2023/10/30 03:20:17;;;;;;;0.80;0.40;;;;;;;11.60;90.96;94569.19;6121962;23;20149;-83
2023/10/30 03:22:42;;;;;;;0.70;0.33;;;;;;;11.61;90.83;94568.19;6097626;23;20218;-83
2023/10/30 03:25:08;;;;;;;2.73;0.60;;;;;;;11.63;90.98;94568.03;6097085;23;20227;-82
2023/10/30 03:27:33;;;;;;;2.13;0.50;;;;;;;11.63;90.70;94568.81;6098960;23;20239;-82
2023/10/30 03:29:59;;;;;;;1.73;0.40;;;;;;;11.61;91.18;94565.59;6099150;23;20206;-82
2023/10/30 03:32:24;;;;;;;2.13;0.63;;;;;;;11.56;91.19;94567.91;6099587;23;20180;-83
2023/10/30 03:34:50;;;;;;;0.87;0.47;;;;;;;11.55;91.56;94558.50;6098922;23;20180;-82
2023/10/30 03:37:15;;;;;;;2.20;0.60;;;;;;;11.61;91.65;94559.59;6124087;23;20160;-83
2023/10/30 03:39:40;;;;;;;0.67;0.40;;;;;;;11.56;91.70;94565.31;6099301;23;20183;-83
2023/10/30 03:42:06;;;;;;;1.00;0.50;;;;;;;11.57;91.10;94555.72;6123482;23;20150;-82
2023/10/30 03:44:31;;;;;;;0.97;0.50;;;;;;;11.57;90.92;94561.75;6098356;23;20152;-83
2023/10/30 03:46:56;;;;;;;0.90;0.50;;;;;;;11.55;90.68;94557.69;6099188;23;20160;-83
2023/10/30 03:49:23;;;;;;;1.03;0.60;;;;;;;11.58;91.06;94557.38;6077227;23;20192;-82
2023/10/30 03:51:48;;;;;;;1.13;0.50;;;;;;;11.62;90.71;94554.22;6078772;23;20188;-84
2023/10/30 03:54:14;;;;;;;1.17;0.50;;;;;;;11.63;90.52;94550.63;6126928;23;20235;-83
2023/10/30 03:56:39;;;;;;;2.23;0.70;;;;;;;11.60;90.68;94553.59;6102929;23;20203;-82
2023/10/30 03:59:05;;;;;;;1.50;0.67;;;;;;;11.63;90.55;94539.41;6103419;23;20189;-83
2023/10/30 04:01:30;;;;;;;1.33;0.60;;;;;;;11.57;90.64;94537.53;6126836;23;20159;-82
2023/10/30 04:03:56;;;;;;;0.93;0.60;;;;;;;11.59;91.00;94545.97;6102641;23;20556;-83
2023/10/30 04:06:21;;;;;;;1.70;0.80;;;;;;;11.60;90.77;94540.59;6101763;23;20183;-84
2023/10/30 04:08:46;;;;;;;1.47;0.70;;;;;;;11.53;90.52;94541.47;6127886;23;20172;-84
2023/10/30 04:11:13;;;;;;;0.30;0.30;;;;;;;11.47;90.96;94547.38;6102422;23;20183;-83
2023/10/30 04:13:38;;;;;;;1.90;0.57;;;;;;;11.30;92.57;94546.72;6103285;23;20187;-83
2023/10/30 04:16:04;;;;;;;0.83;0.50;;;;;;;11.18;93.17;94548.13;6101033;23;20163;-84
2023/10/30 04:18:30;;;;;;;0.57;0.57;;;;;;;11.19;93.34;94557.53;6101943;23;20172;-82
2023/10/30 04:20:55;;;;;;;2.97;0.50;;;;;;;11.21;93.48;94552.97;6101702;23;20156;-84
2023/10/30 04:23:21;;;;;;;1.00;0.60;;;;;;;11.11;93.75;94544.59;6101447;23;20227;-83
2023/10/30 04:25:46;;;;;;;0.97;0.60;;;;;;;11.11;94.28;94547.22;6101392;23;20252;-82
2023/10/30 04:28:11;;;;;;;0.60;0.60;;;;;;;11.20;93.94;94557.34;6125707;23;20176;-82
2023/10/30 04:30:37;;;;;;;1.30;0.80;;;;;;;11.34;93.48;94561.00;6100489;23;20187;-83
2023/10/30 04:33:02;;;;;;;0.93;0.60;;;;;;;11.41;92.88;94561.91;6100372;23;20156;-83
2023/10/30 04:35:27;;;;;;;0.87;0.80;;;;;;;11.50;92.32;94555.66;6099833;23;20168;-84
2023/10/30 04:37:53;;;;;;;0.50;0.50;;;;;;;11.46;92.49;94556.16;6125794;23;20167;-82
2023/10/30 04:40:18;;;;;;;1.20;0.63;;;;;;;11.49;92.49;94556.63;6102374;23;20156;-82
2023/10/30 04:42:44;;;;;;;0.60;0.50;;;;;;;11.51;92.01;94549.47;6126932;23;20162;-82
2023/10/30 04:45:09;;;;;;;1.20;0.80;;;;;;;11.60;92.06;94552.78;6098961;23;20167;-82
2023/10/30 04:47:35;;;;;;;1.17;0.50;;;;;;;11.50;93.19;94552.25;6077420;23;20182;-82
2023/10/30 04:50:00;;;;;;;1.53;0.70;;;;;;;11.47;93.76;94548.19;6102626;23;20695;-82
2023/10/30 04:52:25;;;;;;;2.00;0.80;;;;;;;11.47;92.83;94542.97;6102417;23;20160;-84
2023/10/30 04:54:51;;;;;;;1.20;0.80;;;;;;;11.36;94.06;94546.00;6126063;23;20218;-81
2023/10/30 04:57:16;;;;;;;1.17;1.07;;;;;;;11.38;94.54;94551.84;6101827;23;20643;-84
2023/10/30 04:59:41;;;;;;;2.13;1.20;;;;;;;11.35;94.42;94558.22;6101423;23;20183;-83
2023/10/30 05:02:07;;;;;;;3.20;1.50;;;;;;;11.30;95.67;94549.31;6076629;23;20214;-83
2023/10/30 05:04:33;;;;;;;2.07;1.67;;;;;;;11.39;95.93;94530.06;6100505;23;20168;-85
2023/10/30 05:06:58;;;;;;;3.17;1.57;;;;;;;11.47;94.27;94524.78;6101235;23;20163;-84
2023/10/30 05:09:24;;;;;;;2.87;1.70;;;;;;;11.37;94.96;94526.84;6100651;23;20564;-82
2023/10/30 05:11:49;;;;;;;1.30;1.20;;;;;;;11.33;95.66;94541.19;6100558;23;20565;-83
2023/10/30 05:14:15;;;;;;;2.90;1.40;;;;;;;11.35;96.02;94532.22;6100116;23;20168;-82
2023/10/30 05:16:40;;;;;;;1.30;1.20;;;;;;;11.41;96.14;94512.50;6100539;23;20635;-84
2023/10/30 05:19:06;;;;;;;2.67;1.10;;;;;;;11.42;95.54;94508.13;6126072;23;20250;-83
2023/10/30 05:21:31;;;;;;;1.80;1.30;;;;;;;11.39;95.64;94503.25;6098720;23;20203;-83
2023/10/30 05:23:56;;;;;;;2.80;1.80;;;;;;;11.35;95.61;94501.03;6099527;23;20628;-84
2023/10/30 05:26:22;;;;;;;2.40;1.50;;;;;;;11.41;96.07;94499.53;6075775;23;20164;-82
2023/10/30 05:28:47;;;;;;;2.27;1.57;;;;;;;11.42;95.57;94501.13;6099003;23;20203;-83
2023/10/30 05:31:12;;;;;;;2.27;1.47;;;;;;;11.47;96.25;94496.19;6098822;23;20187;-83
2023/10/30 05:33:38;;;;;;;2.83;1.70;;;;;;;11.35;95.76;94508.00;6099411;23;20160;-83
2023/10/30 05:36:04;;;;;;;5.77;1.97;;;;;;;11.41;96.35;94503.91;6074508;23;20195;-81
2023/10/30 05:38:29;;;;;;;1.83;1.70;;;;;;;11.41;96.50;94499.53;6100671;23;20258;-83
2023/10/30 05:40:55;;;;;;;2.03;1.60;;;;;;;11.41;96.50;94483.13;6099590;23;20160;-85
2023/10/30 05:43:20;;;;;;;2.47;1.53;;;;;;;11.37;96.97;94477.44;6099421;23;20187;-83
2023/10/30 05:45:49;;;;;;;2.20;2.00;;;;;;;11.35;96.58;94487.22;6099378;23;20190;-83
2023/10/30 05:48:15;;;;;;;2.27;2.07;;;;;;;11.40;96.23;94490.09;6100708;23;20191;-84
2023/10/30 05:50:40;;;;;;;2.40;2.20;;;;;;;11.39;96.83;94488.47;6102998;23;20188;-77
2023/10/30 05:53:06;;;;;;;2.33;2.13;;;;;;;11.41;96.68;94486.53;6129269;23;20551;-78
2023/10/30 05:55:31;;;;;;;3.07;2.10;;;;;;;11.35;96.91;94490.63;6126071;23;20215;-82
2023/10/30 05:57:56;;;;;;;5.40;2.03;;;;;;;11.39;96.92;94498.06;6124936;23;20148;-79
2023/10/30 06:00:23;;;;;;;2.50;2.30;;;;;;;11.37;97.36;94500.84;6100356;23;20320;-81
2023/10/30 06:02:48;;;;;;;3.50;2.40;;;;;;;11.29;97.35;94513.91;6124361;23;20156;-80
2023/10/30 06:05:14;;;;;;;2.30;2.10;;;;;;;11.24;98.06;94505.84;6099767;23;20616;-82
2023/10/30 06:07:41;;;;;;;6.20;3.30;;;;;;;11.17;98.74;94521.34;6099425;23;20219;-82
2023/10/30 06:10:07;;;;;;;4.87;3.63;;;;;;;11.06;100.00;94521.75;6099871;23;20254;-79
2023/10/30 06:12:33;;;;;;;4.30;3.60;;;;;;;11.15;98.94;94517.31;6126438;23;20156;-82
2023/10/30 06:14:58;;;;;;;3.73;3.33;;;;;;;11.20;98.70;94518.38;6095336;23;20160;-81
2023/10/30 06:17:24;;;;;;;4.57;3.40;;;;;;;11.21;98.10;94519.19;6094687;23;20631;-80
2023/10/30 06:19:50;;;;;;;5.77;3.90;;;;;;;11.18;98.17;94507.34;6095927;23;20738;-80
2023/10/30 06:22:15;;;;;;;5.47;4.97;;;;;;;11.23;98.08;94509.44;6122692;23;20148;-82
2023/10/30 06:24:40;;;;;;;6.60;4.40;;;;;;;11.22;98.34;94516.44;6098781;23;20182;-80
2023/10/30 06:27:06;;;;;;;5.60;4.50;;;;;;;11.15;98.97;94522.50;6100025;23;20164;-79
2023/10/30 06:29:32;;;;;;;4.90;4.40;;;;;;;11.15;99.56;94514.72;6098924;23;20180;-80
2023/10/30 06:31:57;;;;;;;4.57;4.17;;;;;;;11.32;98.37;94516.19;6098004;23;20270;-80
2023/10/30 06:34:22;;;;;;;5.03;4.63;;;;;;;11.28;97.42;94505.31;6122535;23;20215;-82
2023/10/30 06:36:48;;;;;;;5.53;4.93;;;;;;;11.28;97.94;94502.72;6097632;23;20168;-82
2023/10/30 06:39:17;;;;;;;6.07;4.73;;;;;;;11.36;97.25;94504.44;6097247;23;20186;-82
2023/10/30 06:41:43;;;;;;;5.20;4.77;;;;;;;11.38;97.39;94496.44;6122925;23;20234;-81
2023/10/30 06:44:10;;;;;;;5.03;4.53;;;;;;;11.39;96.88;94493.66;6123747;23;20643;-81
2023/10/30 06:46:36;;;;;;;5.87;4.47;;;;;;;11.25;96.90;94494.47;6123745;23;20194;-83
2023/10/30 06:49:01;;;;;;;6.03;4.33;;;;;;;11.27;96.55;94495.91;6100757;23;20206;-80
2023/10/30 06:51:27;;;;;;;4.70;4.20;;;;;;;11.23;97.27;94494.66;6100172;23;20215;-80
2023/10/30 06:53:52;;;;;;;5.73;4.90;;;;;;;11.26;96.87;94493.50;6079768;23;20628;-83
2023/10/30 06:56:17;;;;;;;4.50;4.10;;;;;;;11.27;97.00;94490.72;6105434;23;20187;-82
2023/10/30 06:58:43;;;;;;;5.23;4.73;;;;;;;11.33;97.00;94497.00;6105569;23;20184;-81
2023/10/30 07:01:08;;;;;;;4.80;4.37;;;;;;;11.38;96.63;94496.44;6129851;23;20179;-84
2023/10/30 07:03:34;;;;;;;6.23;5.00;;;;;;;11.54;96.33;94502.28;6104670;23;20604;-82
2023/10/30 07:06:00;;;;;;;7.30;4.50;;;;;;;11.66;95.91;94505.28;6105731;23;20218;-83
2023/10/30 07:08:25;;;;;;;5.30;4.67;;;;;;;11.76;95.69;94503.19;6106394;23;20175;-82
2023/10/30 07:10:51;;;;;;;5.00;4.40;;;;;;;11.76;95.12;94494.59;6105866;23;20250;-80
2023/10/30 07:13:17;;;;;;;4.33;3.83;;;;;;;11.83;94.83;94498.09;6104257;23;20207;-83
2023/10/30 07:15:42;;;;;;;6.37;4.20;;;;;;;11.81;95.04;94493.09;6127203;23;20687;-83
2023/10/30 07:18:07;;;;;;;4.77;4.27;;;;;;;11.77;94.80;94496.22;6127957;23;20187;-81
2023/10/30 07:20:33;;;;;;;4.50;4.10;;;;;;;11.78;94.59;94493.41;6127535;23;20159;-81
2023/10/30 07:22:58;;;;;;;5.13;4.60;;;;;;;11.77;95.47;94494.41;6102044;23;20156;-82
2023/10/30 07:25:23;;;;;;;6.00;4.43;;;;;;;11.95;94.66;94494.06;6127230;23;20164;-82
2023/10/30 07:27:49;;;;;;;5.43;4.93;;;;;;;11.93;95.42;94490.00;6103767;23;20666;-84
2023/10/30 07:30:14;;;;;;;5.33;4.73;;;;;;;11.97;95.13;94492.09;6127430;23;20605;-81
2023/10/30 07:32:40;;;;;;;8.43;5.67;;;;;;;11.97;94.96;94494.69;6104459;23;20156;-82
2023/10/30 07:35:06;;;;;;;6.43;5.83;;;;;;;11.98;95.30;94487.69;6128019;23;20163;-84
2023/10/30 07:37:32;;;;;;;8.93;6.93;;;;;;;12.08;94.81;94493.41;6103896;23;20211;-81
2023/10/30 07:39:57;;;;;;;7.93;6.07;;;;;;;12.02;94.42;94483.75;6104455;23;20239;-81
2023/10/30 07:42:22;;;;;;;9.13;7.03;;;;;;;12.06;94.20;94490.19;6103646;23;20623;-82
2023/10/30 07:44:48;;;;;;;8.60;7.70;;;;;;;12.05;93.95;94481.56;6101955;23;20159;-81
2023/10/30 07:47:13;;;;;;;9.00;8.10;;;;;;;11.88;94.52;94485.38;6102657;23;20179;-83
2023/10/30 07:49:38;;;;;;;9.33;7.93;;;;;;;11.96;94.14;94479.25;6103080;23;20525;-82
2023/10/30 07:52:04;;;;;;;9.70;7.60;;;;;;;11.99;93.91;94476.28;6103029;23;20190;-83
2023/10/30 07:54:29;;;;;;;9.03;7.87;;;;;;;11.95;94.74;94475.84;6125953;23;20164;-84
2023/10/30 07:56:54;;;;;;;9.53;7.90;;;;;;;12.02;94.16;94484.56;6125993;23;20179;-82
2023/10/30 07:59:20;;;;;;;10.23;8.70;;;;;;;11.99;94.13;94471.09;6101527;23;20191;-83
2023/10/30 08:01:45;;;;;;;9.60;7.97;;;;;;;12.06;94.19;94475.38;6125837;23;20211;-82
2023/10/30 08:04:11;;;;;;;8.40;7.50;;;;;;;12.02;93.95;94479.34;6100685;23;20168;-83
2023/10/30 08:06:36;;;;;;;8.97;7.67;;;;;;;12.16;92.90;94473.28;6102070;23;20176;-81
2023/10/30 08:09:02;;;;;;;10.80;8.47;;;;;;;12.01;93.60;94482.09;6101262;23;20188;-81
2023/10/30 08:11:27;;;;;;;9.67;7.57;;;;;;;12.07;94.13;94477.00;6077443;23;20250;-81
2023/10/30 08:13:53;;;;;;;10.17;8.03;;;;;;;11.87;95.26;94471.56;6100205;23;20368;-81
2023/10/30 08:16:18;;;;;;;10.17;7.53;;;;;;;12.12;94.45;94474.66;6125123;23;20188;-82
2023/10/30 08:18:43;;;;;;;11.73;9.07;;;;;;;12.01;94.83;94472.50;6100077;23;20194;-83
2023/10/30 08:21:08;;;;;;;14.33;11.03;;;;;;;11.90;95.27;94475.59;6100140;23;20507;-81
2023/10/30 08:23:36;;;;;;;11.60;8.40;;;;;;;12.03;94.58;94477.56;6099664;23;20187;-82
2023/10/30 08:26:08;;;;;;;10.30;8.83;;;;;;;12.12;93.72;94477.25;6099308;23;20174;-82
2023/10/30 08:28:34;;;;;;;10.57;9.47;;;;;;;12.14;93.61;94482.28;6099297;23;20399;-81
2023/10/30 08:30:59;;;;;;;11.63;8.70;;;;;;;12.20;93.73;94473.75;6098529;23;20191;-82
2023/10/30 08:33:24;;;;;;;11.03;8.27;;;;;;;12.28;92.87;94468.44;6098987;23;20180;-82
2023/10/30 08:35:50;;;;;;;11.30;8.23;;;;;;;12.30;92.67;94466.44;6122573;23;20167;-83
2023/10/30 08:38:15;;;;;;;8.87;7.97;;;;;;;12.44;91.46;94459.56;6125597;23;20176;-81
2023/10/30 08:40:41;;;;;;;9.37;8.47;;;;;;;12.34;91.37;94452.06;6100088;23;20155;-82
2023/10/30 08:43:06;;;;;;;10.23;9.17;;;;;;;12.37;91.90;94456.09;6074360;23;20167;-81
2023/10/30 08:45:32;;;;;;;9.10;8.07;;;;;;;12.33;91.35;94457.44;6098200;23;20188;-80
2023/10/30 08:47:57;;;;;;;10.47;8.37;;;;;;;12.23;91.95;94443.94;6097613;23;20264;-80
2023/10/30 08:50:22;;;;;;;11.03;9.93;;;;;;;12.33;91.43;94441.84;6097542;23;20168;-80
2023/10/30 08:52:48;;;;;;;10.50;9.40;;;;;;;12.60;90.19;94446.31;6098505;23;20223;-80
2023/10/30 08:55:14;;;;;;;10.60;9.37;;;;;;;12.56;89.72;94441.66;6079077;23;20175;-81
2023/10/30 08:57:39;;;;;;;11.00;9.50;;;;;;;12.50;89.66;94445.81;6096720;23;20195;-79
2023/10/30 09:00:07;;;;;;;11.03;8.87;;;;;;;12.57;89.81;94448.47;6130173;23;20207;-80
2023/10/30 09:02:33;;;;;;;10.80;9.27;;;;;;;12.63;89.77;94437.28;6114078;23;20156;-80
2023/10/30 09:04:58;;;;;;;10.20;8.63;;;;;;;12.89;88.74;94436.72;6091598;23;20163;-81
2023/10/30 09:07:24;;;;;;;9.73;8.73;;;;;;;12.87;89.04;94438.72;6115952;23;20168;-79
2023/10/30 09:09:49;;;;;;;11.37;9.10;;;;;;;12.98;87.05;94427.75;6107044;23;20270;-82
2023/10/30 09:12:14;;;;;;;11.10;9.50;;;;;;;12.85;88.46;94433.69;6106201;23;20194;-82
2023/10/30 09:14:39;;;;;;;10.57;9.53;;;;;;;12.97;88.03;94431.38;6105811;23;20159;-81
2023/10/30 09:17:08;;;;;;;11.20;10.07;;;;;;;12.91;87.13;94427.75;6105158;23;20164;-83
2023/10/30 09:19:34;;;;;;;10.00;8.63;;;;;;;13.24;86.30;94424.56;6131755;23;20202;-82
2023/10/30 09:21:59;;;;;;;12.67;8.60;;;;;;;13.18;86.25;94427.94;6127330;23;20152;-83
2023/10/30 09:24:25;;;;;;;10.40;9.03;;;;;;;13.24;85.75;94430.59;6128212;23;20576;-83
2023/10/30 09:26:50;;;;;;;14.37;8.70;;;;;;;13.37;85.82;94424.66;6105654;23;20210;-83
2023/10/30 09:29:15;;;;;;;8.63;7.73;;;;;;;13.33;85.70;94426.84;6104325;23;20180;-83
2023/10/30 09:31:41;;;;;;;10.67;8.40;;;;;;;13.40;86.03;94428.69;6129020;23;20183;-83
2023/10/30 09:34:06;;;;;;;9.77;8.03;;;;;;;13.35;86.06;94423.25;6080491;23;20596;-82
2023/10/30 09:36:31;;;;;;;9.10;8.17;;;;;;;13.52;85.34;94425.34;6129474;23;20230;-79
2023/10/30 09:38:57;;;;;;;9.73;8.73;;;;;;;13.55;85.56;94417.13;6101144;23;20824;-81
2023/10/30 09:41:22;;;;;;;10.73;9.00;;;;;;;13.21;85.94;94419.75;6097009;23;20160;-80
2023/10/30 09:43:51;;;;;;;12.40;9.10;;;;;;;13.26;85.80;94412.97;6097495;23;20168;-81
2023/10/30 09:46:16;;;;;;;9.77;8.10;;;;;;;13.44;84.92;94412.47;6097340;23;20156;-80
2023/10/30 09:48:45;;;;;;;10.53;8.67;;;;;;;13.46;85.01;94409.66;6122541;23;20227;-81
2023/10/30 09:51:11;;;;;;;9.63;8.13;;;;;;;13.43;83.85;94399.59;6100732;23;20195;-82
2023/10/30 09:53:37;;;;;;;11.80;8.87;;;;;;;13.58;84.63;94405.50;6102161;23;20251;-81
2023/10/30 09:56:04;;;;;;;9.33;8.33;;;;;;;13.71;83.66;94400.38;6100618;23;20541;-83
2023/10/30 09:58:29;;;;;;;9.57;8.57;;;;;;;13.55;83.47;94403.28;6102760;23;20199;-80
2023/10/30 10:00:55;;;;;;;10.33;8.10;;;;;;;13.66;83.34;94399.31;6107809;23;20172;-81
2023/10/30 10:03:21;;;;;;;9.13;8.03;;;;;;;13.86;82.34;94400.19;6107176;23;20156;-80
2023/10/30 10:05:56;;;;;;;9.07;8.17;;;;;;;13.84;83.23;94391.75;6140654;23;20151;-81
2023/10/30 10:08:23;;;;;;;9.57;7.73;;;;;;;13.83;83.86;94393.56;6121968;23;20179;-81
2023/10/30 10:11:01;;;;;;;11.57;8.40;;;;;;;13.97;82.81;94383.19;6116660;23;20278;-83
2023/10/30 10:13:31;;;;;;;9.90;8.33;;;;;;;13.96;83.17;94377.16;6123175;23;20182;-80
2023/10/30 10:15:56;;;;;;;8.50;7.60;;;;;;;13.94;82.41;94376.53;6146783;23;20219;-79
2023/10/30 10:18:24;;;;;;;7.80;6.70;;;;;;;14.27;81.34;94379.22;6148274;23;20183;-81
2023/10/30 10:20:56;;;;;;;8.20;6.83;;;;;;;13.83;82.14;94384.94;6122440;23;20147;-80
2023/10/30 10:23:21;;;;;;;10.20;7.43;;;;;;;13.42;83.62;94383.16;6121888;23;20179;-80
2023/10/30 10:25:56;;;;;;;8.07;7.27;;;;;;;13.85;82.43;94383.75;6146984;23;20163;-79
2023/10/30 10:28:23;;;;;;;7.53;6.77;;;;;;;14.02;81.93;94373.75;6123688;23;20218;-81
2023/10/30 10:30:48;;;;;;;8.57;7.50;;;;;;;14.16;81.11;94370.19;6124624;23;20179;-81
2023/10/30 10:33:14;;;;;;;8.60;7.33;;;;;;;14.27;81.28;94355.72;6123724;23;20170;-80
2023/10/30 10:35:41;;;;;;;9.10;6.40;;;;;;;14.48;80.78;94367.03;6121374;23;20203;-81
2023/10/30 10:38:08;;;;;;;7.37;6.57;;;;;;;14.65;80.55;94357.78;6123858;23;20167;-79
2023/10/30 10:40:34;;;;;;;6.73;6.13;;;;;;;14.49;80.45;94363.41;6118068;23;20176;-82
2023/10/30 10:42:59;;;;;;;7.80;6.60;;;;;;;14.68;80.76;94354.78;6099754;23;20635;-82
2023/10/30 10:45:25;;;;;;;7.60;6.73;;;;;;;14.68;80.22;94346.94;6124954;23;20215;-81
2023/10/30 10:47:52;;;;;;;8.63;7.00;;;;;;;14.87;79.40;94335.69;6076710;23;20195;-82
2023/10/30 10:50:17;;;;;;;6.77;6.17;;;;;;;14.81;79.59;94314.78;6099067;23;20160;-83
2023/10/30 10:52:43;;;;;;;7.03;6.33;;;;;;;14.84;79.66;94309.94;6123171;23;20222;-83
2023/10/30 10:55:12;;;;;;;7.77;6.77;;;;;;;14.94;80.18;94312.16;6096739;23;20162;-84
2023/10/30 10:57:59;;;;;;;7.47;6.10;;;;;;;15.02;80.20;94299.66;6097819;23;20167;-83
2023/10/30 11:00:30;;;;;;;6.63;5.93;;;;;;;14.84;80.04;94307.34;6074844;23;20219;-83
2023/10/30 11:03:01;;;;;;;7.17;6.23;;;;;;;15.00;80.67;94306.09;6076920;23;20213;-82
2023/10/30 11:05:29;;;;;;;9.57;6.03;;;;;;;14.92;80.12;94309.72;6121813;23;20144;-83
2023/10/30 11:08:08;;;;;;;6.53;5.93;;;;;;;14.91;80.77;94315.94;6123119;23;20275;-82
2023/10/30 11:10:49;;;;;;;7.93;6.50;;;;;;;14.89;81.03;94307.50;6076421;23;20540;-82
2023/10/30 11:13:25;;;;;;;8.03;6.20;;;;;;;14.98;81.12;94311.53;6097900;23;20148;-84
2023/10/30 11:15:59;;;;;;;8.27;6.67;;;;;;;14.68;81.95;94305.16;6122770;23;20211;-84
2023/10/30 11:18:24;;;;;;;7.30;5.90;;;;;;;14.69;81.84;94306.75;6123795;23;20171;-83
2023/10/30 11:21:08;;;;;;;6.80;6.00;;;;;;;14.65;81.63;94306.34;6123275;23;20156;-81
2023/10/30 11:23:58;;;;;;;8.07;6.50;;;;;;;14.56;82.79;94306.75;6126465;23;20140;-81
2023/10/30 11:26:30;;;;;;;6.50;5.70;;;;;;;14.54;82.93;94285.25;6127147;23;20141;-81